This is the latest recevied weather packets stored in our database for station/object K3FAZ. If no packets are shown the sender has not sent any weather packets the latest 1 day(s).
| Time | Temp. | Humidity | Pressure | Rain* | Wind** | Luminosity | Snow |
|---|---|---|---|---|---|---|---|
| 1778003493 | 21.67° C | 54% | 1010.9 hPa | 0 mm | 1.79 m/s, 178° | 169 W/m² | - |
| 1778003190 | 21.67° C | 53% | 1010.8 hPa | 0 mm | 2.68 m/s, 151° | 147 W/m² | - |
| 1778002886 | 22.22° C | 49% | 1010.7 hPa | 0 mm | 4.47 m/s, 217° | 213 W/m² | - |
| 1778002583 | 21.67° C | 51% | 1010.5 hPa | 0 mm | 3.58 m/s, 200° | 320 W/m² | - |
| 1778002280 | 22.22° C | 52% | 1010.3 hPa | 0 mm | 3.58 m/s, 188° | 219 W/m² | - |
| 1778001977 | 22.22° C | 51% | 1010.3 hPa | 0 mm | 2.68 m/s, 160° | 266 W/m² | - |
| 1778001674 | 22.78° C | 51% | 1010.1 hPa | 0 mm | 2.68 m/s, 211° | 280 W/m² | - |
| 1778001369 | 22.78° C | 54% | 1010.1 hPa | 0 mm | 1.79 m/s, 188° | 271 W/m² | - |
| 1778001066 | 22.22° C | 52% | 1010.1 hPa | 0 mm | 2.68 m/s, 204° | 545 W/m² | - |
| 1778000763 | 22.78° C | 51% | 1010.3 hPa | 0 mm | 3.13 m/s, 231° | 206 W/m² | - |
| 1778000459 | 22.22° C | 51% | 1010.4 hPa | 0 mm | 3.58 m/s, 204° | 296 W/m² | - |
| 1778000154 | 22.78° C | 50% | 1010.3 hPa | 0 mm | 4.92 m/s, 196° | 554 W/m² | - |
| 1777999851 | 22.22° C | 52% | 1010.2 hPa | 0 mm | 3.13 m/s, 194° | 424 W/m² | - |
| 1777999546 | 22.78° C | 50% | 1010.5 hPa | 0 mm | 6.71 m/s, 198° | 526 W/m² | - |
| 1777999244 | 22.22° C | 52% | 1010.5 hPa | 0 mm | 2.24 m/s, 195° | 572 W/m² | - |
| 1777998943 | 21.67° C | 54% | 1010.6 hPa | 0 mm | 0.89 m/s, 188° | 409 W/m² | - |
| 1777998639 | 21.67° C | 53% | 1010.6 hPa | 0 mm | 1.79 m/s, 326° | 284 W/m² | - |
| 1777998332 | 22.22° C | 52% | 1010.8 hPa | 0 mm | 6.71 m/s, 189° | 252 W/m² | - |
| 1777998029 | 22.22° C | 51% | 1010.5 hPa | 0 mm | 1.79 m/s, 225° | 416 W/m² | - |
| 1777997726 | 22.78° C | 53% | 1010.8 hPa | 0 mm | 2.68 m/s, 182° | 1009 W/m² | - |
| 1777997423 | 22.22° C | 54% | 1010.9 hPa | 0 mm | 1.34 m/s, 247° | 1043 W/m² | - |
| 1777997121 | 22.78° C | 53% | 1010.8 hPa | 0 mm | 3.58 m/s, 215° | 802 W/m² | - |
| 1777996818 | 21.67° C | 53% | 1011.1 hPa | 0 mm | 2.24 m/s, 179° | 994 W/m² | - |
| 1777996514 | 21.67° C | 54% | 1011 hPa | 0 mm | 2.68 m/s, 230° | 361 W/m² | - |
| 1777996211 | 22.22° C | 54% | 1011 hPa | 0 mm | 4.92 m/s, 172° | 455 W/m² | - |
* Rain latest hour (hover to see other rain measurements)
** Current wind speed in m/s (hover to see current wind gust speed)